createdAt,value
2018-09-11T04:00:36.967Z,87.47
2018-09-11T04:01:36.961Z,87.73
2018-09-11T04:02:36.954Z,87.43
2018-09-11T04:03:36.933Z,87.47
2018-09-11T04:04:36.907Z,87.02
2018-09-11T04:05:37.010Z,87.37
2018-09-11T04:06:36.902Z,87.77
2018-09-11T04:07:36.883Z,87.67
2018-09-11T04:08:36.876Z,87.77
2018-09-11T04:09:36.853Z,88.28
2018-09-11T04:10:36.843Z,88.14
2018-09-11T04:11:36.839Z,87.84
2018-09-11T04:12:36.816Z,88.08
2018-09-11T04:13:36.818Z,87.53
2018-09-11T04:14:36.800Z,88.34
2018-09-11T04:15:36.782Z,87.94
2018-09-11T04:16:36.777Z,87.94
2018-09-11T04:17:36.772Z,88.14
2018-09-11T04:18:36.763Z,87.63
2018-09-11T04:19:36.737Z,88.04
2018-09-11T04:20:36.724Z,87.94
2018-09-11T04:21:36.716Z,87.63
2018-09-11T04:22:36.707Z,88.14
2018-09-11T04:23:36.701Z,87.94
2018-09-11T04:24:36.682Z,88.28
2018-09-11T04:25:36.780Z,88.79
2018-09-11T04:26:36.660Z,88.55
2018-09-11T04:27:36.649Z,89.16
2018-09-11T04:28:36.650Z,89.16
2018-09-11T04:29:36.624Z,89.06
2018-09-11T04:30:36.613Z,89.26
2018-09-11T04:31:36.603Z,89.10
2018-09-11T04:32:36.598Z,88.85
2018-09-11T04:33:36.593Z,89.16
2018-09-11T04:34:36.567Z,88.75
2018-09-11T04:35:36.557Z,88.96
2018-09-11T04:36:36.546Z,89.16
2018-09-11T04:37:36.531Z,88.75
2018-09-11T04:38:36.539Z,89.16
2018-09-11T04:39:36.512Z,89.06
2018-09-11T04:40:36.498Z,88.45
2018-09-11T04:41:36.491Z,88.40
2018-09-11T04:42:36.480Z,88.65
2018-09-11T04:43:36.477Z,88.85
2018-09-11T04:44:36.457Z,88.65
2018-09-11T04:45:36.444Z,88.45
2018-09-11T04:46:36.431Z,88.04
2018-09-11T04:47:36.426Z,87.73
2018-09-11T04:48:36.426Z,88.04
2018-09-11T04:49:36.402Z,88.45
2018-09-11T04:50:36.390Z,88.24
2018-09-11T04:51:36.373Z,88.65
2018-09-11T04:52:36.363Z,88.34
2018-09-11T04:53:36.366Z,88.04
2018-09-11T04:54:36.339Z,88.45
2018-09-11T04:55:36.334Z,88.45
2018-09-11T04:56:36.317Z,89.00
2018-09-11T04:57:36.306Z,89.36
2018-09-11T04:58:36.340Z,88.24
2018-09-11T04:59:36.292Z,88.34
2018-09-11T05:00:36.271Z,88.49
2018-09-11T05:01:36.261Z,88.85
2018-09-11T05:02:36.281Z,88.75
2018-09-11T05:03:36.249Z,88.65
2018-09-11T05:04:36.231Z,88.55
2018-09-11T05:05:36.216Z,88.04
2018-09-11T05:06:36.204Z,88.04
2018-09-11T05:07:36.204Z,87.73
2018-09-11T05:08:36.197Z,87.94
2018-09-11T05:09:36.177Z,87.90
2018-09-11T05:10:36.162Z,87.63
2018-09-11T05:11:36.150Z,87.63
2018-09-11T05:12:36.136Z,87.63
2018-09-11T05:13:36.142Z,88.10
2018-09-11T05:14:36.120Z,88.10
2018-09-11T05:15:36.102Z,88.00
2018-09-11T05:16:36.095Z,87.63
2018-09-11T05:17:36.080Z,87.79
2018-09-11T05:18:36.077Z,87.69
2018-09-11T05:19:36.057Z,87.23
2018-09-11T05:20:36.050Z,87.59
2018-09-11T05:21:36.045Z,87.49
2018-09-11T05:22:36.024Z,87.79
2018-09-11T05:23:36.026Z,87.90
2018-09-11T05:24:36.002Z,87.63
2018-09-11T05:25:35.993Z,88.14
2018-09-11T05:26:35.977Z,88.04
2018-09-11T05:27:36.011Z,88.14
2018-09-11T05:28:35.990Z,87.63
2018-09-11T05:29:35.945Z,87.84
2018-09-11T05:30:35.933Z,87.84
2018-09-11T05:31:35.922Z,87.63
2018-09-11T05:32:35.915Z,88.14
2018-09-11T05:33:35.904Z,87.84
2018-09-11T05:34:35.902Z,87.73
2018-09-11T05:35:35.879Z,87.63
2018-09-11T05:36:35.871Z,87.84
2018-09-11T05:37:35.854Z,87.63
2018-09-11T05:38:35.843Z,88.14
2018-09-11T05:39:35.841Z,87.63
2018-09-11T05:40:35.837Z,88.20
2018-09-11T05:41:35.816Z,88.00
2018-09-11T05:42:35.797Z,87.59
2018-09-11T05:43:35.786Z,88.14
2018-09-11T05:44:35.785Z,87.79
2018-09-11T05:45:35.763Z,87.90
2018-09-11T05:46:35.756Z,88.14
2018-09-11T05:47:35.740Z,88.10
2018-09-11T05:48:35.730Z,88.10
2018-09-11T05:49:35.734Z,88.10
2018-09-11T05:50:35.712Z,87.49
2018-09-11T05:51:35.697Z,88.10
2018-09-11T05:52:35.725Z,88.10
2018-09-11T05:53:35.672Z,87.79
2018-09-11T05:54:35.673Z,87.90
2018-09-11T05:55:35.649Z,87.90
2018-09-11T05:56:35.639Z,87.29
2018-09-11T05:57:35.628Z,87.08
2018-09-11T05:58:35.619Z,87.29
2018-09-11T05:59:35.618Z,86.77
2018-09-11T06:00:35.592Z,86.77
2018-09-11T06:01:35.584Z,86.94
2018-09-11T06:02:35.572Z,86.98
2018-09-11T06:03:35.561Z,87.08
2018-09-11T06:04:35.559Z,87.08
2018-09-11T06:05:35.563Z,87.14
2018-09-11T06:06:35.524Z,87.18
2018-09-11T06:07:35.517Z,87.29
2018-09-11T06:08:35.501Z,86.94
2018-09-11T06:09:35.505Z,86.94
2018-09-11T06:10:35.480Z,87.14
2018-09-11T06:11:35.472Z,87.85
2018-09-11T06:12:35.456Z,87.24
2018-09-11T06:13:35.453Z,87.14
2018-09-11T06:14:35.449Z,87.24
2018-09-11T06:15:35.422Z,86.80
2018-09-11T06:16:35.412Z,86.80
2018-09-11T06:17:35.404Z,86.59
2018-09-11T06:18:35.389Z,86.19
2018-09-11T06:19:35.388Z,86.29
2018-09-11T06:20:35.367Z,86.59
2018-09-11T06:21:35.353Z,86.29
2018-09-11T06:22:35.342Z,86.49
2018-09-11T06:23:35.332Z,86.55
2018-09-11T06:24:35.335Z,86.25
2018-09-11T06:25:35.320Z,86.39
2018-09-11T06:26:35.298Z,86.76
2018-09-11T06:27:35.288Z,86.45
2018-09-11T06:28:35.275Z,86.96
2018-09-11T06:29:35.284Z,86.45
2018-09-11T06:30:35.254Z,86.35
2018-09-11T06:31:35.240Z,86.21
2018-09-11T06:32:35.273Z,86.51
2018-09-11T06:33:35.229Z,86.21
2018-09-11T06:34:35.248Z,86.41
2018-09-11T06:35:35.274Z,86.71
2018-09-11T06:36:35.187Z,86.61
2018-09-11T06:37:35.176Z,86.41
2018-09-11T06:38:35.161Z,86.82
2018-09-11T06:39:35.164Z,86.31
2018-09-11T06:40:35.172Z,86.16
2018-09-11T06:41:35.130Z,86.16
2018-09-11T06:42:35.121Z,86.77
2018-09-11T06:43:35.115Z,86.63
2018-09-11T06:44:35.162Z,86.13
2018-09-11T06:45:35.083Z,85.31
2018-09-11T06:46:35.072Z,84.66
2018-09-11T06:47:35.060Z,84.22
2018-09-11T06:48:35.053Z,84.38
2018-09-11T06:49:35.055Z,82.86
2018-09-11T06:50:35.032Z,83.73
2018-09-11T06:51:35.015Z,84.00
2018-09-11T06:52:35.006Z,82.78
2018-09-11T06:53:34.993Z,81.93
2018-09-11T06:54:35.013Z,81.09
2018-09-11T06:55:34.974Z,79.97
2018-09-11T06:56:34.959Z,78.52
2018-09-11T06:57:34.965Z,79.13
2018-09-11T06:58:34.937Z,78.58
2018-09-11T06:59:34.939Z,77.87
2018-09-11T07:00:34.977Z,76.12
2018-09-11T07:01:34.909Z,76.72
2018-09-11T07:02:34.893Z,77.13
2018-09-11T07:03:34.882Z,76.69
2018-09-11T07:04:34.878Z,77.09
2018-09-11T07:05:34.859Z,76.95
2018-09-11T07:06:34.846Z,77.46
2018-09-11T07:07:34.833Z,76.62
2018-09-11T07:08:34.832Z,75.37
2018-09-11T07:09:34.822Z,75.57
2018-09-11T07:10:34.799Z,73.96
2018-09-11T07:11:34.793Z,73.35
2018-09-11T07:12:34.779Z,74.26
2018-09-11T07:13:34.769Z,74.36
2018-09-11T07:14:34.849Z,73.62
2018-09-11T07:15:34.744Z,73.65
2018-09-11T07:16:34.735Z,72.61
2018-09-11T07:17:34.759Z,73.62
2018-09-11T07:18:34.712Z,74.32
2018-09-11T07:19:34.744Z,74.43
2018-09-11T07:20:34.691Z,75.34
2018-09-11T07:21:34.677Z,74.29
2018-09-11T07:22:34.673Z,73.58
2018-09-11T07:23:34.658Z,71.84
2018-09-11T07:24:34.664Z,71.80
2018-09-11T07:25:34.636Z,72.27
2018-09-11T07:26:34.625Z,71.77
2018-09-11T07:27:34.609Z,72.27
2018-09-11T07:28:34.602Z,71.06
2018-09-11T07:29:34.590Z,72.03
2018-09-11T07:30:34.598Z,71.43
2018-09-11T07:31:34.564Z,72.14
2018-09-11T07:32:34.580Z,70.56
2018-09-11T07:33:34.543Z,70.93
2018-09-11T07:34:34.538Z,71.53
2018-09-11T07:35:34.538Z,70.73
2018-09-11T07:36:34.508Z,71.43
2018-09-11T07:37:34.500Z,71.83
2018-09-11T07:38:34.487Z,68.88
2018-09-11T07:39:34.474Z,69.25
2018-09-11T07:40:34.483Z,69.32
2018-09-11T07:41:34.453Z,68.79
2018-09-11T07:42:34.441Z,68.82
2018-09-11T07:43:34.429Z,66.31
2018-09-11T07:44:34.419Z,64.97
2018-09-11T07:45:34.544Z,66.44
2018-09-11T07:46:34.394Z,65.01
2018-09-11T07:47:34.398Z,63.57
2018-09-11T07:48:34.372Z,61.44
2018-09-11T07:49:34.364Z,61.51
2018-09-11T07:50:34.364Z,61.38
2018-09-11T07:51:34.339Z,58.55
2018-09-11T07:52:34.392Z,58.02
2018-09-11T07:53:34.320Z,59.39
2018-09-11T07:54:34.305Z,57.19
2018-09-11T07:55:34.309Z,58.49
2018-09-11T07:56:34.288Z,59.22
2018-09-11T07:57:34.297Z,57.79
2018-09-11T07:58:34.262Z,57.32
2018-09-11T07:59:34.248Z,58.22
2018-09-11T08:00:34.273Z,56.32
2018-09-11T08:01:34.230Z,56.92
2018-09-11T08:02:34.215Z,56.52
2018-09-11T08:03:34.206Z,57.22
2018-09-11T08:04:34.200Z,58.82
2018-09-11T08:05:34.199Z,56.62
2018-09-11T08:06:34.172Z,56.12
2018-09-11T08:07:34.162Z,55.89
2018-09-11T08:08:34.149Z,55.87
2018-09-11T08:09:34.167Z,55.17
2018-09-11T08:10:34.137Z,54.22
2018-09-11T08:11:34.116Z,54.39
2018-09-11T08:12:34.113Z,54.46
2018-09-11T08:13:34.097Z,53.17
2018-09-11T08:14:34.080Z,53.79
2018-09-11T08:15:34.088Z,53.42
2018-09-11T08:16:34.092Z,54.49
2018-09-11T08:17:34.049Z,53.27
2018-09-11T08:18:34.035Z,53.39
2018-09-11T08:19:34.026Z,53.64
2018-09-11T08:20:34.033Z,53.22
2018-09-11T08:21:34.006Z,53.22
2018-09-11T08:22:33.993Z,51.47
2018-09-11T08:23:33.981Z,50.50
2018-09-11T08:24:33.969Z,50.95
2018-09-11T08:25:33.969Z,50.85
2018-09-11T08:26:33.948Z,49.95
2018-09-11T08:27:33.937Z,50.95
2018-09-11T08:28:33.924Z,50.95
2018-09-11T08:29:33.915Z,49.36
2018-09-11T08:30:33.911Z,49.28
2018-09-11T08:31:33.898Z,51.05
2018-09-11T08:32:33.882Z,53.06
2018-09-11T08:33:33.868Z,51.54
2018-09-11T08:34:33.857Z,51.59
2018-09-11T08:35:33.857Z,49.80
2018-09-11T08:36:33.835Z,48.96
2018-09-11T08:37:33.824Z,50.03
2018-09-11T08:38:33.812Z,48.41
2018-09-11T08:39:33.811Z,47.94
2018-09-11T08:40:33.806Z,49.11
2018-09-11T08:41:33.780Z,47.99
2018-09-11T08:42:33.774Z,46.92
2018-09-11T08:43:33.759Z,49.98
2018-09-11T08:44:33.749Z,48.54
2018-09-11T08:45:33.750Z,48.07
2018-09-11T08:46:33.739Z,46.90
2018-09-11T08:47:33.711Z,47.72
2018-09-11T08:48:33.700Z,47.49
2018-09-11T08:49:33.692Z,48.28
2018-09-11T08:50:33.695Z,48.96
2018-09-11T08:51:33.667Z,48.32
2018-09-11T08:52:33.718Z,47.50
2018-09-11T08:53:33.646Z,47.50
2018-09-11T08:54:33.633Z,48.10
2018-09-11T08:55:33.635Z,46.42
2018-09-11T08:56:33.628Z,47.27
2018-09-11T08:57:33.601Z,49.70
2018-09-11T08:58:33.652Z,49.60
2018-09-11T08:59:33.578Z,49.73
2018-09-11T09:00:33.578Z,50.92
2018-09-11T09:01:33.555Z,49.73
2018-09-11T09:02:33.544Z,51.07
2018-09-11T09:03:33.535Z,49.48
2018-09-11T09:04:33.522Z,49.76
2018-09-11T09:05:33.524Z,46.84
2018-09-11T09:06:33.499Z,48.10
2018-09-11T09:07:33.489Z,46.90
2018-09-11T09:08:33.478Z,46.08
2018-09-11T09:09:33.468Z,46.95
2018-09-11T09:10:33.471Z,45.92
2018-09-11T09:11:33.447Z,46.98
2018-09-11T09:12:33.436Z,46.86
2018-09-11T09:13:33.422Z,44.78
2018-09-11T09:14:33.412Z,44.15
2018-09-11T09:15:33.442Z,45.27
2018-09-11T09:16:33.393Z,46.88
2018-09-11T09:17:33.378Z,45.29
2018-09-11T09:18:33.366Z,45.21
2018-09-11T09:19:33.353Z,46.80
2018-09-11T09:20:33.354Z,46.68
2018-09-11T09:21:33.330Z,46.58
2018-09-11T09:22:33.324Z,46.80
2018-09-11T09:23:33.310Z,48.22
2018-09-11T09:24:33.299Z,47.80
2018-09-11T09:25:33.301Z,47.85
2018-09-11T09:26:33.275Z,48.42
2018-09-11T09:27:33.373Z,44.97
2018-09-11T09:28:33.253Z,45.01
2018-09-11T09:29:33.242Z,46.70
2018-09-11T09:30:33.243Z,44.93
2018-09-11T09:31:33.234Z,45.93
2018-09-11T09:32:33.211Z,46.11
2018-09-11T09:33:33.199Z,45.59
2018-09-11T09:34:33.187Z,45.09
2018-09-11T09:35:33.175Z,46.19
2018-09-11T09:36:33.192Z,45.56
2018-09-11T09:37:33.154Z,43.76
2018-09-11T09:38:33.140Z,46.81
2018-09-11T09:39:33.135Z,43.74
2018-09-11T09:40:33.119Z,43.98
2018-09-11T09:41:33.125Z,44.59
2018-09-11T09:42:33.096Z,46.90
2018-09-11T09:43:33.086Z,45.01
2018-09-11T09:44:33.075Z,46.75
2018-09-11T09:45:33.063Z,46.77
2018-09-11T09:46:33.067Z,47.09
2018-09-11T09:47:33.044Z,47.41
2018-09-11T09:48:33.033Z,48.91
2018-09-11T09:49:33.018Z,47.71
2018-09-11T09:50:33.007Z,48.63
2018-09-11T09:51:33.009Z,48.95
2018-09-11T09:52:32.983Z,48.55
2018-09-11T09:53:32.973Z,48.35
2018-09-11T09:54:32.965Z,48.25
2018-09-11T09:55:32.952Z,49.55
2018-09-11T09:56:32.953Z,47.75
2018-09-11T09:57:32.931Z,49.15
2018-09-11T09:58:32.920Z,51.54
2018-09-11T09:59:32.911Z,50.52
2018-09-11T10:00:32.928Z,47.63
2018-09-11T10:01:32.894Z,47.36
2018-09-11T10:02:32.878Z,48.35
2018-09-11T10:03:32.871Z,49.18
2018-09-11T10:04:32.850Z,49.75
2018-09-11T10:05:32.840Z,48.46
2018-09-11T10:06:32.841Z,49.85
2018-09-11T10:07:32.822Z,49.25
2018-09-11T10:08:32.807Z,48.05
2018-09-11T10:09:32.794Z,47.66
2018-09-11T10:10:32.791Z,47.48
2018-09-11T10:11:32.781Z,48.88
2018-09-11T10:12:32.762Z,48.18
2018-09-11T10:13:32.749Z,48.58
2018-09-11T10:14:32.739Z,49.98
2018-09-11T10:15:32.732Z,48.28
2018-09-11T10:16:32.728Z,48.70
2018-09-11T10:17:32.761Z,49.87
2018-09-11T10:18:32.693Z,48.68
2018-09-11T10:19:32.683Z,49.27
2018-09-11T10:20:32.673Z,49.48
2018-09-11T10:21:32.677Z,50.77
2018-09-11T10:22:32.659Z,49.65
2018-09-11T10:23:32.637Z,49.45
2018-09-11T10:24:32.631Z,51.17
2018-09-11T10:25:32.619Z,49.75
2018-09-11T10:26:32.627Z,50.55
2018-09-11T10:27:32.598Z,48.65
2018-09-11T10:28:32.583Z,47.63
2018-09-11T10:29:32.571Z,47.56
2018-09-11T10:30:32.563Z,48.16
2018-09-11T10:31:32.562Z,47.66
2018-09-11T10:32:32.541Z,46.56
2018-09-11T10:33:32.525Z,47.26
2018-09-11T10:34:32.516Z,47.93
2018-09-11T10:35:32.514Z,47.24
2018-09-11T10:36:32.504Z,46.64
2018-09-11T10:37:32.487Z,46.73
2018-09-11T10:38:32.481Z,45.84
2018-09-11T10:39:32.586Z,46.14
2018-09-11T10:40:32.450Z,45.34
2018-09-11T10:41:32.449Z,44.35
2018-09-11T10:42:32.425Z,45.24
2018-09-11T10:43:32.419Z,45.44
2018-09-11T10:44:32.405Z,46.42
2018-09-11T10:45:32.395Z,46.81
2018-09-11T10:46:32.392Z,44.53
2018-09-11T10:47:32.370Z,45.32
2018-09-11T10:48:32.360Z,44.92
2018-09-11T10:49:32.349Z,47.21
2018-09-11T10:50:32.336Z,45.72
2018-09-11T10:51:32.338Z,45.22
2018-09-11T10:52:32.313Z,45.12
2018-09-11T10:53:32.311Z,45.22
2018-09-11T10:54:32.293Z,45.32
2018-09-11T10:55:32.281Z,45.12
2018-09-11T10:56:32.284Z,44.62
2018-09-11T10:57:32.265Z,45.12
2018-09-11T10:58:32.247Z,45.02
2018-09-11T10:59:32.236Z,45.02
2018-09-11T11:00:32.272Z,45.02
2018-09-11T11:01:32.222Z,46.31
2018-09-11T11:02:32.202Z,46.79
2018-09-11T11:03:32.191Z,46.09
2018-09-11T11:04:32.180Z,46.49
2018-09-11T11:05:32.169Z,46.89
2018-09-11T11:06:32.173Z,45.30
2018-09-11T11:07:32.148Z,45.42
2018-09-11T11:08:32.143Z,45.00
2018-09-11T11:09:32.126Z,45.10
2018-09-11T11:10:32.115Z,45.62
2018-09-11T11:11:32.148Z,45.30
2018-09-11T11:12:32.090Z,47.89
2018-09-11T11:13:32.085Z,45.70
2018-09-11T11:14:32.073Z,46.59
2018-09-11T11:15:32.057Z,46.39
2018-09-11T11:16:32.061Z,45.40
2018-09-11T11:17:32.034Z,46.37
2018-09-11T11:18:32.023Z,46.37
2018-09-11T11:19:32.013Z,46.37
2018-09-11T11:20:32.000Z,47.77
2018-09-11T11:21:32.000Z,45.28
2018-09-11T11:22:31.980Z,46.79
2018-09-11T11:23:31.969Z,45.37
2018-09-11T11:24:31.956Z,45.97
2018-09-11T11:25:31.946Z,45.18
2018-09-11T11:26:31.948Z,44.68
2018-09-11T11:27:31.925Z,44.50
2018-09-11T11:28:31.912Z,45.57
2018-09-11T11:29:31.900Z,45.50
2018-09-11T11:30:31.888Z,46.57
2018-09-11T11:31:31.893Z,46.97
2018-09-11T11:32:31.867Z,46.87
2018-09-11T11:33:31.858Z,47.37
2018-09-11T11:34:31.844Z,45.67
2018-09-11T11:35:31.835Z,44.18
2018-09-11T11:36:32.004Z,45.20
2018-09-11T11:37:31.824Z,45.10
2018-09-11T11:38:31.799Z,45.90
2018-09-11T11:39:31.793Z,46.20
2018-09-11T11:40:31.778Z,45.20
2018-09-11T11:41:31.770Z,46.47
2018-09-11T11:42:31.768Z,46.97
2018-09-11T11:43:31.744Z,45.57
2018-09-11T11:44:31.731Z,45.37
2018-09-11T11:45:31.721Z,46.87
2018-09-11T11:46:31.710Z,46.47
2018-09-11T11:47:31.712Z,47.64
2018-09-11T11:48:31.691Z,46.25
2018-09-11T11:49:31.700Z,44.16
2018-09-11T11:50:31.664Z,45.03
2018-09-11T11:51:31.654Z,43.94
2018-09-11T11:52:31.654Z,43.46
2018-09-11T11:53:31.631Z,42.77
2018-09-11T11:54:31.620Z,46.05
2018-09-11T11:55:31.674Z,42.65
2018-09-11T11:56:31.597Z,42.75
2018-09-11T11:57:31.598Z,44.06
2018-09-11T11:58:31.578Z,42.45
2018-09-11T11:59:31.565Z,42.94
2018-09-11T12:00:31.553Z,42.85
2018-09-11T12:01:31.640Z,42.86
2018-09-11T12:02:31.542Z,42.55
2018-09-11T12:03:31.518Z,43.16
2018-09-11T12:04:31.511Z,44.46
2018-09-11T12:05:31.498Z,41.77
2018-09-11T12:06:31.486Z,43.86
2018-09-11T12:07:31.490Z,40.48
2018-09-11T12:08:31.465Z,41.28
2018-09-11T12:09:31.455Z,41.87
2018-09-11T12:10:31.444Z,41.87
2018-09-11T12:11:31.435Z,42.97
2018-09-11T12:12:31.431Z,41.67
2018-09-11T12:13:31.407Z,42.37
2018-09-11T12:14:31.396Z,40.68
2018-09-11T12:15:31.387Z,41.28
2018-09-11T12:16:31.375Z,41.95
2018-09-11T12:17:31.373Z,41.58
2018-09-11T12:18:31.354Z,41.67
2018-09-11T12:19:31.341Z,40.16
2018-09-11T12:20:31.331Z,39.97
2018-09-11T12:21:31.328Z,39.86
2018-09-11T12:22:31.321Z,40.96
2018-09-11T12:23:31.298Z,40.66
2018-09-11T12:24:31.288Z,42.15
2018-09-11T12:25:31.315Z,41.55
2018-09-11T12:26:31.264Z,42.05
2018-09-11T12:27:31.266Z,42.72
2018-09-11T12:28:31.246Z,40.34
2018-09-11T12:29:31.233Z,40.54
2018-09-11T12:30:31.220Z,39.75
2018-09-11T12:31:31.207Z,40.44
2018-09-11T12:32:31.209Z,42.03
2018-09-11T12:33:31.191Z,39.84
2018-09-11T12:34:31.186Z,39.84
2018-09-11T12:35:31.164Z,40.24
2018-09-11T12:36:31.156Z,39.25
2018-09-11T12:37:31.158Z,38.26
2018-09-11T12:38:31.142Z,39.35
2018-09-11T12:39:31.121Z,39.84
2018-09-11T12:40:31.107Z,39.95
2018-09-11T12:41:31.098Z,39.84
2018-09-11T12:42:31.101Z,39.84
2018-09-11T12:43:31.073Z,38.35
2018-09-11T12:44:31.062Z,39.63
2018-09-11T12:45:31.054Z,39.95
2018-09-11T12:46:31.611Z,40.44
2018-09-11T12:47:31.476Z,40.34
2018-09-11T12:48:31.122Z,38.35
2018-09-11T12:49:31.006Z,39.84
2018-09-11T12:50:30.998Z,41.44
2018-09-11T12:51:30.983Z,41.74
2018-09-11T12:52:31.059Z,43.62
2018-09-11T12:53:30.967Z,40.96
2018-09-11T12:54:30.951Z,38.37
2018-09-11T12:55:30.940Z,39.17
2018-09-11T12:56:30.929Z,39.27
2018-09-11T12:57:30.930Z,39.67
2018-09-11T12:58:30.909Z,39.57
2018-09-11T12:59:30.896Z,38.45
2018-09-11T13:00:30.884Z,39.57
2018-09-11T13:01:30.875Z,40.46
2018-09-11T13:02:30.920Z,42.33
2018-09-11T13:03:30.851Z,42.94
2018-09-11T13:04:30.839Z,38.28
2018-09-11T13:05:30.935Z,40.26
2018-09-11T13:06:30.818Z,39.37
2018-09-11T13:07:30.818Z,39.25
2018-09-11T13:08:30.796Z,39.17
2018-09-11T13:09:30.842Z,38.37
2018-09-11T13:10:30.774Z,38.67
2018-09-11T13:11:30.763Z,39.67
2018-09-11T13:12:30.766Z,39.27
2018-09-11T13:13:30.741Z,39.17
2018-09-11T13:14:30.731Z,39.07
2018-09-11T13:15:30.717Z,39.86
2018-09-11T13:16:30.705Z,42.53
2018-09-11T13:17:30.708Z,44.84
2018-09-11T13:18:30.685Z,46.72
2018-09-11T13:19:30.672Z,39.37
2018-09-11T13:20:30.663Z,38.18
2018-09-11T13:21:30.651Z,39.15
2018-09-11T13:22:30.654Z,39.25
2018-09-11T13:23:30.629Z,39.45
2018-09-11T13:24:30.618Z,37.96
2018-09-11T13:25:30.639Z,38.16
2018-09-11T13:26:30.600Z,38.35
2018-09-11T13:27:30.599Z,38.24
2018-09-11T13:28:30.577Z,37.66
2018-09-11T13:29:30.563Z,40.92
2018-09-11T13:30:30.552Z,38.04
2018-09-11T13:31:30.542Z,37.15
2018-09-11T13:32:30.540Z,37.56
2018-09-11T13:33:30.527Z,37.94
2018-09-11T13:34:30.510Z,38.34
2018-09-11T13:35:30.497Z,37.04
2018-09-11T13:36:30.487Z,37.15
2018-09-11T13:37:30.485Z,38.93
2018-09-11T13:38:30.460Z,37.34
2018-09-11T13:39:30.450Z,37.16
2018-09-11T13:40:30.438Z,36.96
2018-09-11T13:41:30.429Z,37.66
2018-09-11T13:42:30.443Z,39.05
2018-09-11T13:43:30.412Z,38.56
2018-09-11T13:44:30.397Z,38.26
2018-09-11T13:45:30.386Z,37.46
2018-09-11T13:46:30.373Z,37.66
2018-09-11T13:47:30.496Z,38.35
2018-09-11T13:48:30.361Z,37.46
2018-09-11T13:49:30.341Z,38.35
2018-09-11T13:50:30.327Z,39.03
2018-09-11T13:51:30.317Z,37.16
2018-09-11T13:52:30.307Z,38.16
2018-09-11T13:53:30.303Z,38.64
2018-09-11T13:54:30.283Z,37.64
2018-09-11T13:55:30.273Z,37.46
2018-09-11T13:56:30.260Z,38.16
2018-09-11T13:57:30.255Z,38.24
2018-09-11T13:58:30.254Z,38.45
2018-09-11T13:59:30.228Z,37.96
2018-09-11T14:00:30.219Z,37.26
2018-09-11T14:01:30.213Z,39.05
2018-09-11T14:02:30.239Z,41.93
2018-09-11T14:03:30.198Z,37.26
2018-09-11T14:04:30.172Z,37.46
2018-09-11T14:05:30.164Z,39.05
2018-09-11T14:06:30.152Z,40.05
2018-09-11T14:07:30.146Z,40.14
2018-09-11T14:08:30.197Z,39.37
2018-09-11T14:09:30.119Z,39.07
2018-09-11T14:10:30.107Z,39.25
2018-09-11T14:11:30.095Z,39.84
2018-09-11T14:12:30.083Z,39.35
2018-09-11T14:13:30.083Z,40.05
2018-09-11T14:14:30.063Z,38.95
2018-09-11T14:15:30.054Z,41.44
2018-09-11T14:16:30.037Z,41.93
2018-09-11T14:17:30.030Z,41.66
2018-09-11T14:18:30.026Z,40.56
2018-09-11T14:19:30.003Z,40.16
2018-09-11T14:20:29.999Z,39.97
2018-09-11T14:21:29.983Z,39.07
2018-09-11T14:22:29.978Z,39.17
2018-09-11T14:23:29.970Z,42.53
2018-09-11T14:24:29.951Z,40.66
2018-09-11T14:25:29.940Z,39.89
2018-09-11T14:26:29.931Z,40.38
2018-09-11T14:27:29.915Z,41.38
2018-09-11T14:28:29.916Z,41.08
2018-09-11T14:29:29.898Z,40.08
2018-09-11T14:30:29.886Z,40.38
2018-09-11T14:31:29.876Z,41.58
2018-09-11T14:32:29.862Z,40.28
2018-09-11T14:33:29.862Z,40.18
2018-09-11T14:34:29.869Z,38.99
2018-09-11T14:35:29.825Z,40.48
2018-09-11T14:36:29.814Z,39.86
2018-09-11T14:37:29.805Z,40.46
2018-09-11T14:38:29.805Z,42.85
2018-09-11T14:39:29.786Z,40.38
2018-09-11T14:40:29.770Z,41.38
2018-09-11T14:41:29.767Z,41.08
2018-09-11T14:42:29.754Z,45.15
2018-09-11T14:43:29.750Z,44.96
2018-09-11T14:44:29.728Z,46.37
2018-09-11T14:45:29.715Z,42.79
2018-09-11T14:46:29.836Z,41.99
2018-09-11T14:47:29.703Z,40.60
2018-09-11T14:48:29.696Z,41.79
2018-09-11T14:49:29.671Z,42.49
2018-09-11T14:50:29.660Z,42.19
2018-09-11T14:51:29.649Z,41.09
2018-09-11T14:52:29.677Z,40.48
2018-09-11T14:53:29.636Z,41.17
2018-09-11T14:54:29.616Z,40.58
2018-09-11T14:55:29.605Z,41.58
2018-09-11T14:56:29.591Z,42.27
2018-09-11T14:57:29.696Z,40.58
2018-09-11T14:58:29.580Z,40.48
2018-09-11T14:59:29.558Z,41.47
2018-09-11T15:00:29.549Z,41.08
2018-09-11T15:01:29.539Z,40.88
2018-09-11T15:02:29.526Z,40.78
2018-09-11T15:03:29.528Z,40.68
2018-09-11T15:04:29.505Z,41.67
2018-09-11T15:05:29.492Z,41.38
2018-09-11T15:06:29.483Z,39.89
2018-09-11T15:07:29.470Z,40.58
2018-09-11T15:08:29.472Z,40.88
2018-09-11T15:09:29.447Z,39.67
2018-09-11T15:10:29.439Z,39.86
2018-09-11T15:11:29.426Z,40.68
2018-09-11T15:12:29.415Z,40.66
2018-09-11T15:13:29.413Z,40.86
2018-09-11T15:14:29.392Z,40.68
2018-09-11T15:15:29.380Z,40.06
2018-09-11T15:16:29.375Z,39.86
2018-09-11T15:17:29.360Z,40.36
2018-09-11T15:18:29.357Z,41.75
2018-09-11T15:19:29.339Z,40.26
2018-09-11T15:20:29.324Z,41.66
2018-09-11T15:21:29.317Z,42.27
2018-09-11T15:22:29.365Z,41.97
2018-09-11T15:23:29.307Z,41.79
2018-09-11T15:24:29.287Z,42.49
2018-09-11T15:25:29.269Z,40.30
2018-09-11T15:26:29.258Z,40.98
2018-09-11T15:27:29.245Z,44.78
2018-09-11T15:28:29.248Z,41.79
2018-09-11T15:29:29.225Z,42.39
2018-09-11T15:30:29.215Z,44.38
2018-09-11T15:31:29.201Z,40.30
2018-09-11T15:32:29.193Z,40.40
2018-09-11T15:33:29.192Z,40.80
2018-09-11T15:34:29.169Z,39.29
2018-09-11T15:35:29.157Z,39.09
2018-09-11T15:36:29.150Z,40.48
2018-09-11T15:37:29.142Z,39.18
2018-09-11T15:38:29.133Z,39.67
2018-09-11T15:39:29.114Z,39.97
2018-09-11T15:40:29.103Z,38.87
2018-09-11T15:41:29.092Z,39.86
2018-09-11T15:42:29.082Z,40.06
2018-09-11T15:43:29.079Z,40.36
2018-09-11T15:44:29.062Z,39.86
2018-09-11T15:45:29.048Z,39.17
2018-09-11T15:46:29.036Z,40.18
2018-09-11T15:47:29.025Z,40.06
2018-09-11T15:48:29.039Z,42.65
2018-09-11T15:49:29.001Z,40.58
2018-09-11T15:50:28.992Z,40.28
2018-09-11T15:51:28.978Z,39.98
2018-09-11T15:52:28.972Z,38.87
2018-09-11T15:53:28.958Z,40.16
2018-09-11T15:54:28.959Z,42.55
2018-09-11T15:55:28.935Z,40.06
2018-09-11T15:56:28.922Z,42.67
2018-09-11T15:57:28.914Z,42.86
2018-09-11T15:58:28.901Z,39.98
2018-09-11T15:59:28.905Z,39.11
2018-09-11T16:00:28.879Z,40.60
2018-09-11T16:01:28.868Z,42.49
2018-09-11T16:02:28.857Z,43.19
2018-09-11T16:03:28.846Z,41.30
2018-09-11T16:04:28.845Z,43.01
2018-09-11T16:05:28.822Z,42.81
2018-09-11T16:06:28.814Z,47.89
2018-09-11T16:07:28.807Z,44.23
2018-09-11T16:08:28.789Z,40.44
2018-09-11T16:09:28.792Z,41.33
2018-09-11T16:10:28.775Z,44.20
2018-09-11T16:11:28.758Z,43.33
2018-09-11T16:12:28.747Z,45.22
2018-09-11T16:13:28.735Z,45.14
2018-09-11T16:14:28.733Z,42.85
2018-09-11T16:15:28.713Z,44.05
2018-09-11T16:16:28.702Z,43.15
2018-09-11T16:17:28.688Z,42.25
2018-09-11T16:18:28.683Z,44.45
2018-09-11T16:19:28.680Z,43.15
2018-09-11T16:20:28.656Z,44.27
2018-09-11T16:21:28.644Z,45.76
2018-09-11T16:22:28.633Z,40.36
2018-09-11T16:23:28.634Z,42.25
2018-09-11T16:24:28.624Z,44.94
2018-09-11T16:25:28.602Z,45.74
2018-09-11T16:26:28.589Z,46.34
2018-09-11T16:27:28.579Z,44.57
2018-09-11T16:28:28.569Z,45.26
2018-09-11T16:29:28.570Z,45.96
2018-09-11T16:30:28.548Z,45.06
2018-09-11T16:31:28.534Z,42.89
2018-09-11T16:32:28.524Z,42.99
2018-09-11T16:33:28.516Z,43.89
2018-09-11T16:34:28.514Z,45.76
2018-09-11T16:35:28.490Z,47.98
2018-09-11T16:36:28.484Z,47.58
2018-09-11T16:37:28.468Z,50.77
2018-09-11T16:38:28.456Z,51.27
2018-09-11T16:39:28.456Z,52.97
2018-09-11T16:40:28.441Z,48.60
2018-09-11T16:41:28.421Z,52.72
2018-09-11T16:42:28.412Z,53.04
2018-09-11T16:43:28.400Z,53.74
2018-09-11T16:44:28.399Z,54.04
2018-09-11T16:45:28.378Z,55.09
2018-09-11T16:46:28.417Z,55.29
2018-09-11T16:47:28.355Z,55.49
2018-09-11T16:48:28.344Z,53.79
2018-09-11T16:49:28.342Z,52.99
2018-09-11T16:50:28.325Z,55.32
2018-09-11T16:51:28.310Z,55.02
2018-09-11T16:52:28.304Z,56.22